aviador You're here:

KGGI Decoded Metar

GRINNELL REG in IA, USA
Report Time2018-01-16 21:15:00
UTC Time2018-01-16 21:20:33
Flight Rules vfr VFR
Wind290° at 14 kt
W.Decomp.*RWY 31: 13.0 kt HW 5.2 kt LCW
W.Rank290° ranks 9
Current wind is above 290° avg. (9.8)
Visibility9999 m
Phenomena:N/A
Clouds:Scattered 011 Hf
Expected CloudBase > 1,200 ft AGL from Temp-Dew spread
CeilingNone
Temp-14°C (ISA -27)
Dew Point-17°C (78% RH)
AAT-22.5°C
QNH1038 hPa
Density Alt-3,222 ft
Elevation1,007 ft
Report Wrong Elevation
Raw Report
METAR KGGI 162115Z AUTO 29014KT 10SM SCT011 M14/M17 A3064 RMK AO2 T11411172=

Extra information for KGGI:More info

Metar Taf Metar & Taf Last 4 Metars F.Rules Stats Wind Profile Meteogram Temp Stats Airport Information Weather charts Add Link Nearby VenuesMetar ALERT Operation Metar Decoded Social comments

AIRNAV info for KGGI